createdAt,value
2018-01-18T00:00:54.505Z,998.44
2018-01-18T00:01:54.487Z,998.48
2018-01-18T00:02:54.463Z,998.50
2018-01-18T00:03:54.438Z,998.46
2018-01-18T00:04:54.415Z,998.41
2018-01-18T00:05:54.391Z,998.41
2018-01-18T00:06:54.367Z,998.39
2018-01-18T00:07:54.345Z,998.40
2018-01-18T00:08:54.326Z,998.32
2018-01-18T00:09:54.301Z,998.29
2018-01-18T00:10:54.283Z,998.32
2018-01-18T00:11:54.269Z,998.34
2018-01-18T00:12:54.236Z,998.33
2018-01-18T00:13:54.209Z,998.33
2018-01-18T00:14:54.184Z,998.36
2018-01-18T00:15:54.161Z,998.30
2018-01-18T00:16:54.146Z,998.32
2018-01-18T00:17:54.115Z,998.30
2018-01-18T00:18:54.096Z,998.23
2018-01-18T00:19:54.076Z,998.22
2018-01-18T00:20:54.052Z,998.12
2018-01-18T00:21:54.025Z,998.13
2018-01-18T00:22:54.001Z,998.13
2018-01-18T00:23:53.979Z,998.11
2018-01-18T00:24:53.958Z,998.12
2018-01-18T00:25:53.938Z,998.08
2018-01-18T00:26:53.927Z,998.12
2018-01-18T00:27:53.884Z,998.07
2018-01-18T00:28:53.865Z,998.05
2018-01-18T00:29:53.846Z,998.03
2018-01-18T00:30:53.821Z,998.02
2018-01-18T00:31:53.805Z,997.99
2018-01-18T00:32:53.773Z,998.01
2018-01-18T00:33:53.751Z,997.98
2018-01-18T00:34:53.727Z,997.99
2018-01-18T00:35:53.710Z,997.95
2018-01-18T00:36:53.685Z,997.85
2018-01-18T00:37:53.661Z,997.84
2018-01-18T00:38:53.635Z,997.79
2018-01-18T00:39:53.611Z,997.79
2018-01-18T00:40:53.590Z,997.82
2018-01-18T00:41:53.566Z,997.77
2018-01-18T00:42:53.542Z,997.72
2018-01-18T00:43:53.534Z,997.72
2018-01-18T00:44:53.502Z,997.68
2018-01-18T00:45:53.475Z,997.60
2018-01-18T00:46:53.452Z,997.52
2018-01-18T00:47:53.431Z,997.54
2018-01-18T00:48:53.450Z,997.52
2018-01-18T00:49:53.383Z,997.51
2018-01-18T00:50:53.358Z,997.52
2018-01-18T00:51:53.338Z,997.52
2018-01-18T00:52:53.318Z,997.47
2018-01-18T00:53:53.289Z,997.51
2018-01-18T00:54:53.272Z,997.51
2018-01-18T00:55:53.247Z,997.51
2018-01-18T00:56:53.224Z,997.47
2018-01-18T00:57:53.212Z,997.52
2018-01-18T00:58:53.208Z,997.47
2018-01-18T00:59:53.154Z,997.42
2018-01-18T01:00:53.129Z,997.38
2018-01-18T01:01:53.107Z,997.42
2018-01-18T01:02:53.085Z,997.39
2018-01-18T01:03:53.070Z,997.38
2018-01-18T01:04:53.045Z,997.38
2018-01-18T01:05:53.015Z,997.32
2018-01-18T01:06:52.994Z,997.31
2018-01-18T01:07:52.975Z,997.24
2018-01-18T01:08:52.947Z,997.28
2018-01-18T01:09:52.923Z,997.29
2018-01-18T01:10:52.902Z,997.23
2018-01-18T01:11:52.885Z,997.28
2018-01-18T01:12:52.862Z,997.27
2018-01-18T01:13:52.833Z,997.25
2018-01-18T01:14:52.808Z,997.25
2018-01-18T01:15:52.791Z,997.20
2018-01-18T01:16:52.767Z,997.18
2018-01-18T01:17:52.741Z,997.11
2018-01-18T01:18:52.716Z,997.07
2018-01-18T01:19:52.696Z,996.98
2018-01-18T01:20:52.679Z,996.95
2018-01-18T01:21:52.648Z,996.91
2018-01-18T01:22:52.624Z,996.92
2018-01-18T01:23:52.605Z,996.91
2018-01-18T01:24:52.583Z,996.97
2018-01-18T01:25:52.555Z,996.89
2018-01-18T01:26:52.534Z,996.92
2018-01-18T01:27:52.516Z,996.92
2018-01-18T01:28:52.496Z,996.86
2018-01-18T01:29:52.466Z,996.75
2018-01-18T01:30:52.446Z,996.76
2018-01-18T01:31:52.423Z,996.76
2018-01-18T01:32:52.406Z,996.71
2018-01-18T01:33:52.380Z,996.66
2018-01-18T01:34:52.352Z,996.66
2018-01-18T01:35:52.328Z,996.61
2018-01-18T01:36:52.307Z,996.55
2018-01-18T01:37:52.288Z,996.49
2018-01-18T01:38:52.265Z,996.40
2018-01-18T01:39:52.240Z,996.38
2018-01-18T01:40:52.215Z,996.38
2018-01-18T01:41:52.193Z,996.39
2018-01-18T01:42:52.174Z,996.41
2018-01-18T01:43:52.145Z,996.36
2018-01-18T01:44:52.126Z,996.30
2018-01-18T01:45:52.110Z,996.33
2018-01-18T01:46:52.074Z,996.34
2018-01-18T01:47:52.057Z,996.27
2018-01-18T01:48:52.035Z,996.27
2018-01-18T01:49:52.010Z,996.26
2018-01-18T01:50:51.984Z,996.22
2018-01-18T01:51:51.963Z,996.21
2018-01-18T01:52:51.946Z,996.29
2018-01-18T01:53:51.923Z,996.29
2018-01-18T01:54:51.895Z,996.24
2018-01-18T01:55:51.871Z,996.23
2018-01-18T01:56:51.850Z,996.23
2018-01-18T01:57:51.825Z,996.15
2018-01-18T01:58:51.808Z,996.11
2018-01-18T01:59:51.781Z,996.03
2018-01-18T02:00:51.761Z,996.00
2018-01-18T02:01:51.745Z,995.92
2018-01-18T02:02:51.715Z,995.91
2018-01-18T02:03:51.693Z,995.86
2018-01-18T02:04:51.668Z,995.85
2018-01-18T02:05:51.642Z,995.82
2018-01-18T02:06:51.622Z,995.76
2018-01-18T02:07:51.598Z,995.71
2018-01-18T02:08:51.576Z,995.73
2018-01-18T02:09:51.559Z,995.75
2018-01-18T02:10:51.534Z,995.68
2018-01-18T02:11:51.515Z,995.69
2018-01-18T02:12:51.484Z,995.70
2018-01-18T02:13:51.465Z,995.70
2018-01-18T02:14:51.444Z,995.66
2018-01-18T02:15:51.416Z,995.63
2018-01-18T02:16:51.396Z,995.58
2018-01-18T02:17:51.374Z,995.54
2018-01-18T02:18:51.355Z,995.60
2018-01-18T02:19:51.326Z,995.48
2018-01-18T02:20:51.306Z,995.49
2018-01-18T02:21:51.280Z,995.42
2018-01-18T02:22:51.256Z,995.40
2018-01-18T02:23:51.240Z,995.36
2018-01-18T02:24:51.215Z,995.34
2018-01-18T02:25:51.193Z,995.28
2018-01-18T02:26:51.165Z,995.22
2018-01-18T02:27:51.145Z,995.22
2018-01-18T02:28:51.121Z,995.13
2018-01-18T02:29:51.105Z,995.10
2018-01-18T02:30:51.074Z,995.04
2018-01-18T02:31:51.050Z,995.01
2018-01-18T02:32:51.038Z,994.96
2018-01-18T02:33:51.005Z,994.94
2018-01-18T02:34:50.988Z,994.90
2018-01-18T02:35:50.966Z,994.89
2018-01-18T02:36:50.942Z,994.91
2018-01-18T02:37:50.916Z,994.83
2018-01-18T02:38:50.894Z,994.79
2018-01-18T02:39:50.873Z,994.69
2018-01-18T02:40:50.845Z,994.73
2018-01-18T02:41:50.825Z,994.70
2018-01-18T02:42:50.802Z,994.70
2018-01-18T02:43:50.788Z,994.69
2018-01-18T02:44:50.757Z,994.69
2018-01-18T02:45:50.734Z,994.65
2018-01-18T02:46:50.714Z,994.54
2018-01-18T02:47:50.691Z,994.52
2018-01-18T02:48:50.666Z,994.47
2018-01-18T02:49:50.646Z,994.44
2018-01-18T02:50:50.623Z,994.41
2018-01-18T02:51:50.598Z,994.40
2018-01-18T02:52:50.575Z,994.43
2018-01-18T02:53:50.554Z,994.39
2018-01-18T02:54:50.537Z,994.28
2018-01-18T02:55:50.511Z,994.30
2018-01-18T02:56:50.485Z,994.27
2018-01-18T02:57:50.464Z,994.27
2018-01-18T02:58:50.442Z,994.26
2018-01-18T02:59:50.415Z,994.20
2018-01-18T03:00:50.394Z,994.21
2018-01-18T03:01:50.375Z,994.19
2018-01-18T03:02:50.361Z,994.22
2018-01-18T03:03:50.327Z,994.19
2018-01-18T03:04:50.306Z,994.25
2018-01-18T03:05:50.289Z,994.21
2018-01-18T03:06:50.264Z,994.20
2018-01-18T03:07:50.236Z,994.26
2018-01-18T03:08:50.216Z,994.20
2018-01-18T03:09:50.190Z,994.16
2018-01-18T03:10:50.168Z,994.05
2018-01-18T03:11:50.149Z,994.00
2018-01-18T03:12:50.121Z,994.04
2018-01-18T03:13:50.100Z,993.99
2018-01-18T03:14:50.081Z,994.00
2018-01-18T03:15:50.056Z,993.98
2018-01-18T03:16:50.035Z,993.97
2018-01-18T03:17:50.013Z,993.81
2018-01-18T03:18:49.985Z,993.73
2018-01-18T03:19:49.962Z,993.69
2018-01-18T03:20:49.941Z,993.61
2018-01-18T03:21:49.922Z,993.58
2018-01-18T03:22:49.896Z,993.59
2018-01-18T03:23:49.874Z,993.51
2018-01-18T03:24:49.852Z,993.44
2018-01-18T03:25:49.827Z,993.37
2018-01-18T03:26:49.805Z,993.34
2018-01-18T03:27:49.785Z,993.35
2018-01-18T03:28:49.765Z,993.23
2018-01-18T03:29:49.735Z,993.21
2018-01-18T03:30:49.716Z,993.16
2018-01-18T03:31:49.693Z,993.00
2018-01-18T03:32:49.669Z,992.95
2018-01-18T03:33:49.645Z,993.04
2018-01-18T03:34:49.623Z,992.90
2018-01-18T03:35:49.604Z,992.89
2018-01-18T03:36:49.583Z,992.89
2018-01-18T03:37:49.562Z,992.78
2018-01-18T03:38:49.537Z,992.77
2018-01-18T03:39:49.510Z,992.70
2018-01-18T03:40:49.493Z,992.66
2018-01-18T03:41:49.469Z,992.62
2018-01-18T03:42:49.445Z,992.61
2018-01-18T03:43:49.423Z,992.64
2018-01-18T03:44:49.398Z,992.65
2018-01-18T03:45:49.381Z,992.60
2018-01-18T03:46:49.358Z,992.63
2018-01-18T03:47:49.335Z,992.53
2018-01-18T03:48:49.312Z,992.47
2018-01-18T03:49:49.285Z,992.41
2018-01-18T03:50:49.266Z,992.30
2018-01-18T03:51:49.240Z,992.24
2018-01-18T03:52:49.232Z,992.10
2018-01-18T03:53:49.196Z,992.06
2018-01-18T03:54:49.176Z,992.04
2018-01-18T03:55:49.157Z,992.02
2018-01-18T03:56:49.129Z,991.97
2018-01-18T03:57:49.105Z,991.96
2018-01-18T03:58:49.088Z,991.89
2018-01-18T03:59:49.068Z,991.89
2018-01-18T04:00:49.043Z,991.83
2018-01-18T04:01:49.020Z,991.73
2018-01-18T04:02:48.993Z,991.57
2018-01-18T04:03:48.972Z,991.62
2018-01-18T04:04:48.955Z,991.53
2018-01-18T04:05:48.926Z,991.47
2018-01-18T04:06:48.905Z,991.36
2018-01-18T04:07:48.885Z,991.29
2018-01-18T04:08:48.861Z,991.26
2018-01-18T04:09:48.837Z,991.27
2018-01-18T04:10:48.812Z,991.22
2018-01-18T04:11:48.794Z,991.08
2018-01-18T04:12:48.773Z,991.02
2018-01-18T04:13:48.744Z,990.96
2018-01-18T04:14:48.725Z,990.94
2018-01-18T04:15:48.702Z,990.88
2018-01-18T04:16:48.680Z,990.85
2018-01-18T04:17:48.655Z,990.77
2018-01-18T04:18:48.633Z,990.71
2018-01-18T04:19:48.612Z,990.70
2018-01-18T04:20:48.590Z,990.63
2018-01-18T04:21:48.568Z,990.53
2018-01-18T04:22:48.545Z,990.45
2018-01-18T04:23:48.528Z,990.46
2018-01-18T04:24:48.507Z,990.32
2018-01-18T04:25:48.479Z,990.23
2018-01-18T04:26:48.454Z,990.14
2018-01-18T04:27:48.435Z,990.11
2018-01-18T04:28:48.408Z,990.10
2018-01-18T04:29:48.384Z,990.01
2018-01-18T04:30:48.370Z,989.95
2018-01-18T04:31:48.343Z,989.90
2018-01-18T04:32:48.321Z,989.82
2018-01-18T04:33:48.295Z,989.72
2018-01-18T04:34:48.276Z,989.65
2018-01-18T04:35:48.247Z,989.58
2018-01-18T04:36:48.233Z,989.43
2018-01-18T04:37:48.205Z,989.36
2018-01-18T04:38:48.185Z,989.28
2018-01-18T04:39:48.161Z,989.22
2018-01-18T04:40:48.136Z,989.20
2018-01-18T04:41:48.112Z,989.13
2018-01-18T04:42:48.089Z,989.08
2018-01-18T04:43:48.074Z,989.07
2018-01-18T04:44:48.045Z,988.97
2018-01-18T04:45:48.024Z,988.93
2018-01-18T04:46:48.002Z,988.87
2018-01-18T04:47:47.981Z,988.83
2018-01-18T04:48:47.956Z,988.80
2018-01-18T04:49:47.936Z,988.71
2018-01-18T04:50:47.915Z,988.67
2018-01-18T04:51:47.891Z,988.59
2018-01-18T04:52:47.864Z,988.52
2018-01-18T04:53:47.841Z,988.46
2018-01-18T04:54:47.820Z,988.42
2018-01-18T04:55:47.794Z,988.35
2018-01-18T04:56:47.775Z,988.30
2018-01-18T04:57:47.748Z,988.20
2018-01-18T04:58:47.727Z,988.24
2018-01-18T04:59:47.705Z,988.15
2018-01-18T05:00:47.691Z,988.08
2018-01-18T05:01:47.664Z,988.05
2018-01-18T05:02:47.636Z,988.00
2018-01-18T05:03:47.615Z,987.89
2018-01-18T05:04:47.591Z,987.91
2018-01-18T05:05:47.570Z,987.85
2018-01-18T05:06:47.544Z,987.83
2018-01-18T05:07:47.525Z,987.72
2018-01-18T05:08:47.501Z,987.66
2018-01-18T05:09:47.479Z,987.62
2018-01-18T05:10:47.455Z,987.58
2018-01-18T05:11:47.430Z,987.50
2018-01-18T05:12:47.414Z,987.45
2018-01-18T05:13:47.382Z,987.33
2018-01-18T05:14:47.364Z,987.29
2018-01-18T05:15:47.355Z,987.21
2018-01-18T05:16:47.320Z,987.15
2018-01-18T05:17:47.307Z,987.09
2018-01-18T05:18:47.272Z,986.98
2018-01-18T05:19:47.263Z,986.92
2018-01-18T05:20:47.237Z,986.88
2018-01-18T05:21:47.204Z,986.78
2018-01-18T05:22:47.185Z,986.70
2018-01-18T05:23:47.164Z,986.59
2018-01-18T05:24:47.137Z,986.48
2018-01-18T05:25:47.113Z,986.57
2018-01-18T05:26:47.095Z,986.57
2018-01-18T05:27:47.065Z,986.60
2018-01-18T05:28:47.050Z,986.49
2018-01-18T05:29:47.024Z,986.46
2018-01-18T05:30:47.003Z,986.41
2018-01-18T05:31:46.974Z,986.36
2018-01-18T05:32:46.955Z,986.14
2018-01-18T05:33:46.934Z,986.16
2018-01-18T05:34:46.908Z,986.19
2018-01-18T05:35:46.883Z,986.08
2018-01-18T05:36:46.859Z,986.20
2018-01-18T05:37:46.845Z,986.14
2018-01-18T05:38:46.814Z,986.10
2018-01-18T05:39:46.798Z,986.05
2018-01-18T05:40:46.771Z,985.97
2018-01-18T05:41:46.748Z,985.87
2018-01-18T05:42:46.723Z,985.78
2018-01-18T05:43:46.700Z,985.73
2018-01-18T05:44:46.678Z,985.74
2018-01-18T05:45:46.657Z,985.64
2018-01-18T05:46:46.631Z,985.57
2018-01-18T05:47:46.609Z,985.46
2018-01-18T05:48:46.594Z,985.42
2018-01-18T05:49:46.564Z,985.31
2018-01-18T05:50:46.541Z,985.17
2018-01-18T05:51:46.518Z,985.16
2018-01-18T05:52:46.494Z,985.18
2018-01-18T05:53:46.473Z,985.16
2018-01-18T05:54:46.448Z,985.13
2018-01-18T05:55:46.428Z,985.18
2018-01-18T05:56:46.405Z,985.09
2018-01-18T05:57:46.382Z,984.98
2018-01-18T05:58:46.390Z,984.89
2018-01-18T05:59:46.335Z,984.79
2018-01-18T06:00:46.328Z,984.75
2018-01-18T06:01:46.289Z,984.70
2018-01-18T06:02:46.265Z,984.45
2018-01-18T06:03:46.243Z,984.60
2018-01-18T06:04:46.224Z,984.50
2018-01-18T06:05:46.197Z,984.59
2018-01-18T06:06:46.171Z,984.34
2018-01-18T06:07:46.152Z,984.35
2018-01-18T06:08:46.129Z,984.33
2018-01-18T06:09:46.102Z,984.20
2018-01-18T06:10:46.085Z,984.14
2018-01-18T06:11:46.068Z,984.13
2018-01-18T06:12:46.034Z,984.04
2018-01-18T06:13:46.010Z,983.87
2018-01-18T06:14:45.991Z,983.82
2018-01-18T06:15:45.964Z,983.78
2018-01-18T06:16:45.945Z,983.59
2018-01-18T06:17:45.919Z,983.58
2018-01-18T06:18:45.895Z,983.70
2018-01-18T06:19:45.874Z,983.54
2018-01-18T06:20:45.855Z,983.52
2018-01-18T06:21:45.827Z,983.30
2018-01-18T06:22:45.804Z,983.42
2018-01-18T06:23:45.781Z,983.45
2018-01-18T06:24:45.760Z,983.40
2018-01-18T06:25:45.746Z,983.27
2018-01-18T06:26:45.715Z,983.26
2018-01-18T06:27:45.689Z,983.11
2018-01-18T06:28:45.675Z,983.21
2018-01-18T06:29:45.644Z,983.07
2018-01-18T06:30:45.621Z,983.10
2018-01-18T06:31:45.605Z,983.14
2018-01-18T06:32:45.582Z,983.06
2018-01-18T06:33:45.557Z,982.90
2018-01-18T06:34:45.531Z,982.87
2018-01-18T06:35:45.512Z,982.85
2018-01-18T06:36:45.487Z,982.61
2018-01-18T06:37:45.461Z,982.36
2018-01-18T06:38:45.440Z,982.56
2018-01-18T06:39:45.415Z,982.61
2018-01-18T06:40:45.391Z,982.45
2018-01-18T06:41:45.374Z,982.47
2018-01-18T06:42:45.351Z,982.41
2018-01-18T06:43:45.326Z,982.48
2018-01-18T06:44:45.303Z,982.43
2018-01-18T06:45:45.282Z,982.52
2018-01-18T06:46:45.258Z,982.49
2018-01-18T06:47:45.232Z,982.33
2018-01-18T06:48:45.210Z,982.27
2018-01-18T06:49:45.185Z,982.21
2018-01-18T06:50:45.160Z,982.21
2018-01-18T06:51:45.144Z,982.16
2018-01-18T06:52:45.120Z,982.21
2018-01-18T06:53:45.101Z,982.13
2018-01-18T06:54:45.070Z,982.26
2018-01-18T06:55:45.051Z,982.22
2018-01-18T06:56:45.025Z,982.07
2018-01-18T06:57:45.002Z,982.09
2018-01-18T06:58:44.978Z,982.03
2018-01-18T06:59:44.955Z,982.06
2018-01-18T07:00:44.936Z,981.92
2018-01-18T07:01:44.912Z,981.87
2018-01-18T07:02:44.891Z,981.85
2018-01-18T07:03:44.865Z,981.83
2018-01-18T07:04:44.844Z,981.72
2018-01-18T07:05:44.822Z,981.54
2018-01-18T07:06:44.795Z,981.64
2018-01-18T07:07:44.772Z,981.61
2018-01-18T07:08:44.750Z,981.51
2018-01-18T07:09:44.731Z,981.52
2018-01-18T07:10:44.705Z,981.34
2018-01-18T07:11:44.684Z,981.41
2018-01-18T07:12:44.660Z,981.35
2018-01-18T07:13:44.636Z,981.38
2018-01-18T07:14:44.615Z,981.14
2018-01-18T07:15:44.590Z,981.26
2018-01-18T07:16:44.571Z,981.20
2018-01-18T07:17:44.544Z,981.39
2018-01-18T07:18:44.558Z,981.15
2018-01-18T07:19:44.502Z,980.93
2018-01-18T07:20:44.478Z,980.92
2018-01-18T07:21:44.454Z,980.87
2018-01-18T07:22:44.435Z,980.74
2018-01-18T07:23:44.416Z,980.87
2018-01-18T07:24:44.392Z,980.68
2018-01-18T07:25:44.365Z,980.76
2018-01-18T07:26:44.346Z,980.69
2018-01-18T07:27:44.319Z,980.86
2018-01-18T07:28:44.302Z,980.56
2018-01-18T07:29:44.278Z,980.62
2018-01-18T07:30:44.267Z,980.59
2018-01-18T07:31:44.233Z,980.60
2018-01-18T07:32:44.210Z,980.58
2018-01-18T07:33:44.185Z,980.78
2018-01-18T07:34:44.161Z,980.63
2018-01-18T07:35:44.143Z,980.65
2018-01-18T07:36:44.120Z,980.57
2018-01-18T07:37:44.095Z,980.62
2018-01-18T07:38:44.073Z,980.52
2018-01-18T07:39:44.049Z,980.47
2018-01-18T07:40:44.026Z,980.33
2018-01-18T07:41:44.006Z,980.28
2018-01-18T07:42:43.990Z,980.38
2018-01-18T07:43:43.962Z,980.39
2018-01-18T07:44:43.946Z,980.31
2018-01-18T07:45:43.955Z,980.25
2018-01-18T07:46:43.909Z,980.21
2018-01-18T07:47:43.875Z,980.16
2018-01-18T07:48:43.853Z,980.29
2018-01-18T07:49:43.825Z,980.05
2018-01-18T07:50:43.807Z,980.07
2018-01-18T07:51:43.784Z,980.00
2018-01-18T07:52:43.760Z,980.05
2018-01-18T07:53:43.734Z,979.83
2018-01-18T07:54:43.717Z,979.91
2018-01-18T07:55:43.695Z,979.81
2018-01-18T07:56:43.671Z,979.78
2018-01-18T07:57:43.646Z,979.79
2018-01-18T07:58:43.625Z,979.87
2018-01-18T07:59:43.605Z,979.59
2018-01-18T08:00:43.581Z,979.62
2018-01-18T08:01:43.565Z,979.78
2018-01-18T08:02:43.541Z,979.83
2018-01-18T08:03:43.514Z,979.86
2018-01-18T08:04:43.493Z,979.81
2018-01-18T08:05:43.482Z,979.56
2018-01-18T08:06:43.448Z,979.61
2018-01-18T08:07:43.431Z,979.48
2018-01-18T08:08:43.408Z,979.53
2018-01-18T08:09:43.387Z,979.55
2018-01-18T08:10:43.364Z,979.60
2018-01-18T08:11:43.344Z,979.47
2018-01-18T08:12:43.322Z,979.55
2018-01-18T08:13:43.296Z,979.42
2018-01-18T08:14:43.282Z,979.37
2018-01-18T08:15:43.255Z,979.43
2018-01-18T08:16:43.235Z,979.35
2018-01-18T08:17:43.265Z,979.26
2018-01-18T08:18:43.187Z,979.24
2018-01-18T08:19:43.161Z,979.26
2018-01-18T08:20:43.146Z,979.36
2018-01-18T08:21:43.121Z,979.36
2018-01-18T08:22:43.098Z,979.26
2018-01-18T08:23:43.086Z,979.35
2018-01-18T08:24:43.056Z,979.25
2018-01-18T08:25:43.033Z,979.28
2018-01-18T08:26:43.010Z,979.07
2018-01-18T08:27:42.994Z,978.95
2018-01-18T08:28:42.965Z,979.23
2018-01-18T08:29:42.944Z,979.23
2018-01-18T08:30:42.924Z,979.26
2018-01-18T08:31:42.900Z,979.24
2018-01-18T08:32:42.880Z,979.35
2018-01-18T08:33:42.857Z,979.11
2018-01-18T08:34:42.840Z,979.10
2018-01-18T08:35:42.816Z,979.25
2018-01-18T08:36:42.798Z,979.11
2018-01-18T08:37:42.771Z,979.06
2018-01-18T08:38:42.765Z,978.93
2018-01-18T08:39:42.734Z,979.24
2018-01-18T08:40:42.725Z,979.06
2018-01-18T08:41:42.685Z,979.11
2018-01-18T08:42:42.675Z,978.99
2018-01-18T08:43:42.645Z,979.00
2018-01-18T08:44:42.620Z,979.15
2018-01-18T08:45:42.598Z,978.98
2018-01-18T08:46:42.584Z,978.77
2018-01-18T08:47:42.556Z,978.69
2018-01-18T08:48:42.536Z,978.70
2018-01-18T08:49:42.515Z,978.69
2018-01-18T08:50:42.492Z,978.72
2018-01-18T08:51:42.470Z,978.70
2018-01-18T08:52:42.455Z,978.73
2018-01-18T08:53:42.429Z,978.83
2018-01-18T08:54:42.416Z,978.86
2018-01-18T08:55:42.384Z,978.74
2018-01-18T08:56:42.368Z,978.80
2018-01-18T08:57:42.343Z,978.75
2018-01-18T08:58:42.321Z,978.77
2018-01-18T08:59:42.305Z,978.61
2018-01-18T09:00:42.282Z,978.36
2018-01-18T09:01:42.258Z,978.70
2018-01-18T09:02:42.241Z,978.55
2018-01-18T09:03:42.216Z,978.45
2018-01-18T09:04:42.201Z,978.48
2018-01-18T09:05:42.176Z,978.39
2018-01-18T09:06:42.153Z,978.44
2018-01-18T09:07:42.136Z,978.46
2018-01-18T09:08:42.114Z,978.50
2018-01-18T09:09:42.094Z,978.57
2018-01-18T09:10:42.075Z,978.65
2018-01-18T09:11:42.050Z,978.31
2018-01-18T09:12:42.032Z,978.47
2018-01-18T09:13:42.006Z,978.51
2018-01-18T09:14:41.986Z,978.59
2018-01-18T09:15:41.965Z,978.58
2018-01-18T09:16:41.978Z,978.64
2018-01-18T09:17:41.935Z,978.30
2018-01-18T09:18:41.904Z,978.39
2018-01-18T09:19:41.880Z,978.25
2018-01-18T09:20:41.858Z,978.36
2018-01-18T09:21:41.839Z,978.41
2018-01-18T09:22:41.815Z,978.31
2018-01-18T09:23:41.796Z,978.30
2018-01-18T09:24:41.779Z,978.08
2018-01-18T09:25:41.757Z,978.35
2018-01-18T09:26:41.733Z,978.39
2018-01-18T09:27:41.713Z,978.22
2018-01-18T09:28:41.692Z,978.36
2018-01-18T09:29:41.670Z,978.29
2018-01-18T09:30:41.657Z,978.30
2018-01-18T09:31:41.629Z,978.48
2018-01-18T09:32:41.607Z,978.34
2018-01-18T09:33:41.586Z,978.36
2018-01-18T09:34:41.566Z,978.48
2018-01-18T09:35:41.543Z,978.47
2018-01-18T09:36:41.526Z,978.47
2018-01-18T09:37:41.507Z,978.44
2018-01-18T09:38:41.481Z,978.46
2018-01-18T09:39:41.464Z,978.39
2018-01-18T09:40:41.442Z,978.54
2018-01-18T09:41:41.415Z,978.53
2018-01-18T09:42:41.396Z,978.47
2018-01-18T09:43:41.379Z,978.45
2018-01-18T09:44:41.351Z,978.67
2018-01-18T09:45:41.334Z,978.53
2018-01-18T09:46:41.314Z,978.61
2018-01-18T09:47:41.289Z,978.92
2018-01-18T09:48:41.273Z,978.59
2018-01-18T09:49:41.249Z,978.44
2018-01-18T09:50:41.232Z,978.73
2018-01-18T09:51:41.216Z,978.80
2018-01-18T09:52:41.186Z,978.30
2018-01-18T09:53:41.165Z,978.99
2018-01-18T09:54:41.146Z,978.67
2018-01-18T09:55:41.136Z,978.71
2018-01-18T09:56:41.103Z,978.26
2018-01-18T09:57:41.088Z,978.47
2018-01-18T09:58:41.071Z,978.72
2018-01-18T09:59:41.046Z,978.50
2018-01-18T10:00:41.072Z,978.68
2018-01-18T10:01:41.000Z,978.80
2018-01-18T10:02:40.989Z,978.76
2018-01-18T10:03:40.956Z,978.46
2018-01-18T10:04:40.940Z,978.87
2018-01-18T10:05:40.916Z,978.57
2018-01-18T10:06:40.895Z,978.78
2018-01-18T10:07:40.876Z,978.62
2018-01-18T10:08:40.859Z,978.30
2018-01-18T10:09:40.828Z,978.77
2018-01-18T10:10:40.815Z,978.60
2018-01-18T10:11:40.792Z,978.93
2018-01-18T10:12:40.767Z,978.30
2018-01-18T10:13:40.747Z,978.32
2018-01-18T10:14:40.728Z,978.44
2018-01-18T10:15:40.706Z,978.37
2018-01-18T10:16:40.684Z,978.31
2018-01-18T10:17:40.665Z,978.65
2018-01-18T10:18:40.638Z,978.54
2018-01-18T10:19:40.621Z,978.77
2018-01-18T10:20:40.600Z,978.61
2018-01-18T10:21:40.576Z,978.32
2018-01-18T10:22:40.556Z,978.49
2018-01-18T10:23:40.535Z,978.62
2018-01-18T10:24:40.517Z,978.81
2018-01-18T10:25:40.496Z,978.70
2018-01-18T10:26:40.472Z,978.75
2018-01-18T10:27:40.456Z,978.55
2018-01-18T10:28:40.432Z,978.50
2018-01-18T10:29:40.414Z,978.61
2018-01-18T10:30:40.388Z,977.83
2018-01-18T10:31:40.368Z,978.52
2018-01-18T10:32:40.345Z,978.64
2018-01-18T10:33:40.323Z,978.53
2018-01-18T10:34:40.316Z,978.67
2018-01-18T10:35:40.281Z,978.61
2018-01-18T10:36:40.293Z,978.44
2018-01-18T10:37:40.241Z,978.93
2018-01-18T10:38:40.217Z,978.69
2018-01-18T10:39:40.199Z,978.74
2018-01-18T10:40:40.175Z,978.65
2018-01-18T10:41:40.155Z,979.01
2018-01-18T10:42:40.130Z,978.73
2018-01-18T10:43:40.115Z,978.87
2018-01-18T10:44:40.189Z,979.15
2018-01-18T10:45:40.068Z,978.67
2018-01-18T10:46:40.049Z,978.62
2018-01-18T10:47:40.029Z,979.17
2018-01-18T10:48:40.062Z,978.92
2018-01-18T10:49:39.980Z,979.13
2018-01-18T10:50:39.959Z,979.04
2018-01-18T10:51:39.941Z,979.55
2018-01-18T10:52:39.932Z,978.64
2018-01-18T10:53:39.910Z,979.19
2018-01-18T10:54:39.878Z,978.87
2018-01-18T10:55:39.862Z,979.12
2018-01-18T10:56:39.830Z,979.00
2018-01-18T10:57:39.808Z,979.19
2018-01-18T10:58:39.786Z,979.32
2018-01-18T10:59:39.768Z,979.27
2018-01-18T11:00:39.748Z,979.35
2018-01-18T11:01:39.722Z,979.24
2018-01-18T11:02:39.704Z,979.15
2018-01-18T11:03:39.676Z,979.37
2018-01-18T11:04:39.658Z,979.27
2018-01-18T11:05:39.632Z,979.29
2018-01-18T11:06:39.615Z,979.50
2018-01-18T11:07:39.598Z,979.35
2018-01-18T11:08:39.568Z,979.77
2018-01-18T11:09:39.544Z,979.56
2018-01-18T11:10:39.527Z,979.61
2018-01-18T11:11:39.504Z,979.54
2018-01-18T11:12:39.480Z,979.79
2018-01-18T11:13:39.461Z,979.79
2018-01-18T11:14:39.438Z,979.90
2018-01-18T11:15:39.417Z,980.11
2018-01-18T11:16:39.398Z,980.09
2018-01-18T11:17:39.365Z,980.11
2018-01-18T11:18:39.347Z,980.39
2018-01-18T11:19:39.326Z,980.25
2018-01-18T11:20:39.324Z,980.67
2018-01-18T11:21:39.284Z,980.64
2018-01-18T11:22:39.258Z,980.77
2018-01-18T11:23:39.235Z,980.58
2018-01-18T11:24:39.212Z,980.80
2018-01-18T11:25:39.193Z,980.90
2018-01-18T11:26:39.172Z,980.77
2018-01-18T11:27:39.147Z,981.09
2018-01-18T11:28:39.131Z,981.24
2018-01-18T11:29:39.105Z,981.54
2018-01-18T11:30:39.091Z,981.17
2018-01-18T11:31:39.059Z,981.42
2018-01-18T11:32:39.040Z,981.22
2018-01-18T11:33:39.012Z,981.35
2018-01-18T11:34:38.994Z,981.62
2018-01-18T11:35:38.971Z,981.50
2018-01-18T11:36:38.952Z,981.90
2018-01-18T11:37:38.926Z,981.65
2018-01-18T11:38:38.905Z,981.92
2018-01-18T11:39:38.888Z,981.96
2018-01-18T11:40:38.862Z,982.29
2018-01-18T11:41:38.835Z,982.59
2018-01-18T11:42:38.817Z,982.21
2018-01-18T11:43:38.792Z,982.13
2018-01-18T11:44:38.771Z,982.69
2018-01-18T11:45:38.751Z,982.77
2018-01-18T11:46:38.742Z,982.85
2018-01-18T11:47:38.724Z,982.61
2018-01-18T11:48:38.684Z,982.83
2018-01-18T11:49:38.667Z,982.85
2018-01-18T11:50:38.637Z,983.14
2018-01-18T11:51:38.618Z,982.82
2018-01-18T11:52:38.599Z,983.31
2018-01-18T11:53:38.585Z,983.12
2018-01-18T11:54:38.547Z,983.28
2018-01-18T11:55:38.527Z,983.29
2018-01-18T11:56:38.506Z,983.55
2018-01-18T11:57:38.485Z,983.36
2018-01-18T11:58:38.467Z,983.33
2018-01-18T11:59:38.448Z,983.27
2018-01-18T12:00:38.421Z,983.85
2018-01-18T12:01:38.413Z,984.11
2018-01-18T12:02:38.372Z,983.86
2018-01-18T12:03:38.367Z,983.96
2018-01-18T12:04:38.331Z,983.92
2018-01-18T12:05:38.308Z,984.17
2018-01-18T12:06:38.289Z,983.96
2018-01-18T12:07:38.274Z,984.40
2018-01-18T12:08:38.244Z,984.30
2018-01-18T12:09:38.218Z,984.17
2018-01-18T12:10:38.195Z,984.31
2018-01-18T12:11:38.173Z,984.61
2018-01-18T12:12:38.152Z,984.59
2018-01-18T12:13:38.166Z,984.68
2018-01-18T12:14:38.114Z,984.68
2018-01-18T12:15:38.083Z,984.67
2018-01-18T12:16:38.067Z,984.75
2018-01-18T12:17:38.042Z,985.13
2018-01-18T12:18:38.017Z,985.11
2018-01-18T12:19:37.998Z,985.14
2018-01-18T12:20:37.981Z,985.58
2018-01-18T12:21:37.951Z,985.79
2018-01-18T12:22:37.938Z,985.64
2018-01-18T12:23:37.910Z,985.32
2018-01-18T12:24:37.889Z,985.42
2018-01-18T12:25:37.863Z,986.12
2018-01-18T12:26:37.839Z,985.56
2018-01-18T12:27:37.818Z,986.10
2018-01-18T12:28:37.799Z,985.70